Terminal Aerodrome Forecast
Issued by NWS

Home | Current Version | Previous Version | Text Only | Print | Product List | Glossary On
Versions: 1 2 3 4 5 6 7 8 9 10 11 12 13 14 15 16 17
000
FTUS42 KMLB 182327
TAFISM
TAF
KISM 182327Z 1900/1924 30008KT P6SM FEW050 BKN200
     FM190200 00000KT P6SM BKN250
     FM191400 19006KT P6SM SCT030 BKN250
     FM191700 25008KT P6SM VCTS SCT040CB BKN250
      AMD NOT SKED 1903/1912=

USA.gov is the U.S. government's official web portal to all federal, state and local government web resources and services.